Thursday, October 23, 2014
02:27 UTC
  |  Log In   |  Register Free
Airport Search:

Big Bear City Airport
(L35)

Big Bear City Airport Diagram
No Airport Diagram Available

FAA data valid effective September 18, 2014 - November 13, 2014 (unless otherwise noted).

 
 
 
 
 
 
 
 
 
 
 
 
 
 

Current Aviation Weather for Big Bear City Airport (L35)

METAR data is unavailable for L35. The nearest METAR location is at KSBD (21.4 nm SW from L35).

The most recent METAR observation for KSBD was updated at: 0216
METAR Summary (Translated METAR)
KSBD
230150Z 23005KT 10SM BKN200 25/09 A2993
(21.4 nm SW from L35)
KAPV
191256Z AUTO 05004KT 10SM FEW075 SCT090 BKN110 18/18 A2996 RMK AO2 SLP144 T01830178 $
(24.8 nm NW from L35)
TAF Summary (Translated TAF)
KRIV
(12.9 nm SW from KSBD)
2220/2402 36006KT 9999 SCT150 BKN250 QNH2993INS BECMG 2222/2223 30009KT 9999 BKN250 QNH2993INS BECMG 2303/2304 30006KT 9999 SCT300 QNH2996INS BECMG 2322/2323 32009KT 9999 BKN250 QNH2997INS TX32/2322Z TN10/2312Z
  Airport Weather Conditions for L35

Current weather conditions are
not available for L35


The nearest NOAA weather station
is at SBD, (21.4 nm SW from L35)
  
 Current Weather at SBD
77° F
Mostly Cloudy
Southwest winds at 5.8 mph
SBD NOAA Radar

Pressure: 29.93 in
Humidity: 36%
Wind: Southwest at 5.8 MPH (5 KT)
Dew Point: 48.2°F
Visibility: 10.00 mi


Airport Weather Forecast for L35

Translated METAR and TAF for KSBD
Translated METAR for KSBD (0222 UTC 23 October 2014)
found at http://aviationweather.gov/adds/metars/
 
METAR text: KSBD 230150Z 23005KT 10SM BKN200 25/09 A2993
Conditions at: KSBD (SAN BERNARDINO , CA, US) observed 0150 UTC 23 October 2014
Temperature: 25.0°C (77°F)
Dewpoint: 9.0°C (48°F) [RH = 36%]
Pressure (altimeter): 29.93 inches Hg (1013.6 mb)
Winds: from the SW (230 degrees) at 6 MPH (5 knots; 2.6 m/s)
Visibility: 10 or more miles (16+ km)
Ceiling: 20000 feet AGL
Clouds: broken clouds at 20000 feet AGL
Weather: no significant weather observed at this time
Translated TAF for KSBD

There is no translated TAF available for this airport

Find All Airport Services Find A Hotel Find A Rental Car Find A Golf Course Find A Restaurant $100 Hamburger



FBO's on the Field
FBO Company Facility Photos Services Transportation Aviation Fuel Prices: Prices include tax
Catering Weather Repair Courtesy Rental Type 100LL JetA JetA+ MOGAS 8087
 
Big Bear Airport

This FBO has not yet been rated
FS:Epic
Last Updated: Oct-06
Login to update fuel prices
SS:
Contact Big Bear AirportMore FBO Information
 
Add another FBO Facility Photos Catering Weather Repair Courtesy Rental Type 100LL JetA JetA+ MOGAS 8087
Services Transportation Aviation Fuel Prices: Prices include tax


model-print
model-print
model-print
model-print